createdAt,value
2023-05-24T00:00:46.759Z,4.47
2023-05-24T00:03:16.352Z,4.35
2023-05-24T00:05:46.850Z,4.40
2023-05-24T00:08:16.046Z,4.72
2023-05-24T00:10:44.470Z,4.40
2023-05-24T00:13:12.775Z,5.10
2023-05-24T00:15:40.975Z,4.85
2023-05-24T00:18:16.923Z,5.00
2023-05-24T00:20:50.223Z,4.65
2023-05-24T00:23:18.323Z,4.47
2023-05-24T00:25:46.357Z,5.10
2023-05-24T00:28:14.426Z,4.55
2023-05-24T00:30:42.607Z,5.15
2023-05-24T00:33:10.936Z,4.60
2023-05-24T00:35:38.996Z,5.60
2023-05-24T00:38:08.364Z,5.07
2023-05-24T00:40:36.376Z,4.72
2023-05-24T00:43:04.394Z,5.60
2023-05-24T00:45:33.760Z,5.03
2023-05-24T00:48:02.426Z,5.22
2023-05-24T00:50:30.590Z,5.25
2023-05-24T00:53:01.902Z,5.97
2023-05-24T00:55:31.613Z,5.43
2023-05-24T00:57:59.692Z,5.75
2023-05-24T01:00:28.568Z,5.47
2023-05-24T01:02:57.136Z,4.88
2023-05-24T01:05:25.328Z,5.10
2023-05-24T01:08:03.927Z,5.07
2023-05-24T01:10:44.945Z,4.80
2023-05-24T01:13:21.878Z,4.80
2023-05-24T01:16:00.001Z,5.00
2023-05-24T01:18:32.481Z,4.53
2023-05-24T01:21:12.107Z,4.78
2023-05-24T01:23:48.728Z,4.25
2023-05-24T01:26:30.160Z,3.83
2023-05-24T01:29:03.572Z,4.10
2023-05-24T01:31:31.860Z,3.78
2023-05-24T01:33:59.876Z,4.25
2023-05-24T01:36:27.845Z,4.10
2023-05-24T01:38:55.905Z,4.05
2023-05-24T01:41:35.866Z,3.58
2023-05-24T01:44:14.575Z,3.97
2023-05-24T01:46:45.245Z,3.60
2023-05-24T01:49:22.089Z,4.10
2023-05-24T01:51:52.546Z,4.00
2023-05-24T01:54:24.468Z,3.92
2023-05-24T01:56:55.441Z,3.47
2023-05-24T01:59:27.082Z,3.97
2023-05-24T02:01:55.827Z,3.45
2023-05-24T02:04:24.683Z,3.22
2023-05-24T02:06:52.725Z,3.78
2023-05-24T02:09:20.901Z,4.00
2023-05-24T02:11:48.941Z,3.28
2023-05-24T02:14:17.321Z,3.92
2023-05-24T02:16:46.922Z,3.65
2023-05-24T02:19:15.471Z,3.88
2023-05-24T02:21:43.892Z,3.88
2023-05-24T02:24:12.571Z,3.63
2023-05-24T02:26:40.818Z,4.13
2023-05-24T02:29:08.850Z,3.50
2023-05-24T02:31:37.101Z,3.97
2023-05-24T02:34:06.612Z,3.80
2023-05-24T02:36:36.320Z,3.50
2023-05-24T02:39:05.057Z,4.32
2023-05-24T02:41:33.084Z,4.22
2023-05-24T02:44:01.157Z,3.75
2023-05-24T02:46:29.207Z,3.47
2023-05-24T02:48:59.445Z,3.90
2023-05-24T02:51:28.783Z,4.32
2023-05-24T02:53:56.828Z,4.22
2023-05-24T02:56:26.659Z,3.72
2023-05-24T02:58:55.701Z,4.20
2023-05-24T03:01:24.117Z,3.80
2023-05-24T03:03:52.220Z,4.15
2023-05-24T03:06:20.773Z,4.03
2023-05-24T03:08:51.131Z,4.25
2023-05-24T03:11:22.174Z,4.07
2023-05-24T03:13:50.561Z,4.60
2023-05-24T03:16:19.727Z,3.95
2023-05-24T03:18:50.589Z,4.10
2023-05-24T03:21:20.831Z,4.80
2023-05-24T03:23:50.713Z,4.30
2023-05-24T03:26:19.329Z,3.83
2023-05-24T03:28:47.677Z,4.38
2023-05-24T03:31:16.716Z,4.20
2023-05-24T03:33:45.022Z,4.15
2023-05-24T03:36:13.049Z,4.10
2023-05-24T03:38:41.075Z,4.53
2023-05-24T03:41:10.486Z,4.43
2023-05-24T03:43:38.499Z,4.70
2023-05-24T03:46:06.723Z,4.63
2023-05-24T03:48:34.730Z,4.68
2023-05-24T03:51:02.854Z,4.47
2023-05-24T03:53:32.280Z,4.78
2023-05-24T03:56:00.292Z,4.85
2023-05-24T03:58:29.665Z,4.80
2023-05-24T04:00:57.722Z,4.63
2023-05-24T04:03:26.455Z,4.80
2023-05-24T04:05:55.018Z,5.25
2023-05-24T04:08:23.041Z,5.15
2023-05-24T04:10:51.226Z,4.75
2023-05-24T04:13:19.236Z,4.63
2023-05-24T04:15:48.585Z,4.93
2023-05-24T04:18:16.788Z,4.90
2023-05-24T04:20:45.113Z,4.72
2023-05-24T04:23:13.395Z,4.43
2023-05-24T04:25:42.164Z,4.82
2023-05-24T04:28:10.232Z,4.90
2023-05-24T04:30:38.856Z,4.88
2023-05-24T04:33:09.354Z,4.90
2023-05-24T04:35:38.155Z,5.13
2023-05-24T04:38:06.211Z,5.55
2023-05-24T04:40:34.299Z,4.43
2023-05-24T04:43:02.816Z,4.93
2023-05-24T04:45:32.847Z,5.25
2023-05-24T04:48:00.917Z,5.40
2023-05-24T04:50:35.342Z,5.13
2023-05-24T04:53:03.317Z,5.00
2023-05-24T04:55:31.302Z,5.32
2023-05-24T04:57:59.314Z,4.85
2023-05-24T05:00:27.410Z,4.82
2023-05-24T05:02:56.186Z,5.00
2023-05-24T05:05:24.354Z,5.65
2023-05-24T05:07:53.795Z,5.07
2023-05-24T05:10:23.759Z,4.97
2023-05-24T05:12:52.321Z,5.18
2023-05-24T05:15:22.334Z,5.50
2023-05-24T05:17:50.833Z,4.35
2023-05-24T05:20:19.374Z,4.75
2023-05-24T05:22:48.073Z,5.70
2023-05-24T05:25:18.092Z,4.43
2023-05-24T05:27:46.107Z,5.18
2023-05-24T05:30:14.429Z,4.95
2023-05-24T05:32:42.457Z,5.20
2023-05-24T05:35:11.065Z,5.85
2023-05-24T05:37:39.126Z,5.40
2023-05-24T05:40:08.201Z,4.97
2023-05-24T05:42:37.652Z,5.38
2023-05-24T05:45:06.492Z,6.10
2023-05-24T05:47:34.471Z,5.10
2023-05-24T05:50:02.471Z,5.57
2023-05-24T05:52:30.512Z,5.25
2023-05-24T05:54:59.279Z,5.00
2023-05-24T05:57:28.281Z,5.18
2023-05-24T05:59:57.698Z,5.38
2023-05-24T06:02:25.891Z,5.55
2023-05-24T06:04:54.509Z,5.47
2023-05-24T06:07:22.687Z,6.00
2023-05-24T06:09:50.729Z,5.65
2023-05-24T06:12:18.942Z,5.22
2023-05-24T06:14:48.248Z,5.35
2023-05-24T06:17:18.570Z,5.32
2023-05-24T06:19:47.710Z,4.85
2023-05-24T06:22:15.855Z,5.07
2023-05-24T06:24:45.326Z,5.53
2023-05-24T06:27:13.722Z,4.97
2023-05-24T06:29:41.802Z,5.55
2023-05-24T06:32:10.004Z,5.25
2023-05-24T06:34:39.460Z,5.10
2023-05-24T06:37:10.278Z,5.40
2023-05-24T06:39:38.417Z,5.70
2023-05-24T06:42:06.703Z,5.13
2023-05-24T06:44:34.684Z,5.18
2023-05-24T06:47:03.133Z,5.25
2023-05-24T06:49:31.317Z,6.47
2023-05-24T06:52:00.810Z,5.03
2023-05-24T06:54:28.808Z,5.00
2023-05-24T06:56:56.920Z,4.93
2023-05-24T06:59:24.956Z,5.00
2023-05-24T07:01:58.430Z,4.95
2023-05-24T07:04:28.455Z,5.38
2023-05-24T07:06:59.030Z,5.97
2023-05-24T07:09:29.654Z,5.45
2023-05-24T07:11:57.975Z,5.60
2023-05-24T07:14:27.440Z,5.18
2023-05-24T07:16:57.576Z,5.28
2023-05-24T07:19:29.235Z,5.50
2023-05-24T07:21:57.533Z,5.07
2023-05-24T07:24:26.378Z,5.13
2023-05-24T07:26:56.746Z,5.35
2023-05-24T07:29:24.972Z,5.68
2023-05-24T07:31:53.020Z,6.03
2023-05-24T07:34:22.509Z,5.28
2023-05-24T07:36:50.546Z,4.75
2023-05-24T07:39:19.007Z,5.70
2023-05-24T07:41:48.281Z,5.20
2023-05-24T07:44:18.413Z,5.43
2023-05-24T07:46:46.545Z,5.45
2023-05-24T07:49:14.796Z,4.82
2023-05-24T07:51:42.863Z,5.10
2023-05-24T07:54:10.983Z,4.78
2023-05-24T07:56:39.111Z,4.75
2023-05-24T07:59:08.125Z,4.85
2023-05-24T08:01:38.037Z,4.85
2023-05-24T08:04:06.261Z,5.10
2023-05-24T08:06:35.044Z,4.65
2023-05-24T08:09:04.061Z,4.90
2023-05-24T08:11:32.420Z,5.38
2023-05-24T08:14:00.539Z,5.18
2023-05-24T08:16:28.594Z,5.30
2023-05-24T08:18:57.981Z,4.72
2023-05-24T08:21:26.239Z,5.28
2023-05-24T08:23:54.344Z,5.38
2023-05-24T08:26:22.389Z,5.15
2023-05-24T08:28:50.427Z,6.07
2023-05-24T08:31:18.556Z,5.57
2023-05-24T08:33:50.371Z,5.63
2023-05-24T08:36:20.214Z,5.65
2023-05-24T08:38:48.242Z,5.22
2023-05-24T08:41:16.323Z,5.07
2023-05-24T08:43:44.772Z,5.15
2023-05-24T08:46:15.305Z,5.78
2023-05-24T08:48:47.212Z,5.65
2023-05-24T08:51:16.671Z,5.10
2023-05-24T08:53:50.113Z,5.15
2023-05-24T08:56:19.118Z,5.82
2023-05-24T08:58:47.656Z,5.35
2023-05-24T09:01:17.793Z,5.60
2023-05-24T09:03:48.471Z,4.97
2023-05-24T09:06:18.648Z,5.90
2023-05-24T09:08:52.343Z,5.13
2023-05-24T09:11:21.011Z,5.53
2023-05-24T09:13:49.694Z,5.38
2023-05-24T09:16:17.984Z,5.35
2023-05-24T09:18:46.113Z,5.47
2023-05-24T09:21:14.819Z,6.10
2023-05-24T09:23:43.300Z,5.80
2023-05-24T09:26:13.210Z,4.82
2023-05-24T09:28:42.472Z,5.78
2023-05-24T09:31:10.628Z,6.10
2023-05-24T09:33:40.584Z,5.65
2023-05-24T09:36:09.393Z,5.03
2023-05-24T09:38:37.494Z,5.63
2023-05-24T09:41:11.092Z,6.20
2023-05-24T09:43:50.433Z,5.90
2023-05-24T09:46:19.901Z,5.70
2023-05-24T09:48:58.546Z,5.60
2023-05-24T09:51:27.748Z,5.70
2023-05-24T09:53:58.515Z,4.93
2023-05-24T09:56:27.562Z,5.78
2023-05-24T09:58:58.026Z,5.20
2023-05-24T10:01:27.039Z,5.50
2023-05-24T10:03:55.879Z,5.15
2023-05-24T10:06:25.009Z,5.25
2023-05-24T10:08:54.394Z,5.63
2023-05-24T10:11:24.134Z,5.72
2023-05-24T10:13:52.149Z,5.72
2023-05-24T10:16:21.679Z,5.63
2023-05-24T10:18:50.832Z,5.35
2023-05-24T10:21:21.142Z,5.88
2023-05-24T10:23:53.632Z,5.63
2023-05-24T10:26:26.493Z,5.50
2023-05-24T10:29:01.170Z,5.45
2023-05-24T10:31:34.393Z,5.53
2023-05-24T10:34:08.415Z,5.45
2023-05-24T10:36:37.376Z,5.70
2023-05-24T10:39:05.977Z,5.70
2023-05-24T10:41:41.782Z,5.28
2023-05-24T10:44:13.202Z,5.32
2023-05-24T10:47:11.047Z,5.28
2023-05-24T10:49:40.150Z,5.28
2023-05-24T10:52:12.523Z,5.07
2023-05-24T10:54:49.543Z,5.35
2023-05-24T10:57:29.012Z,5.07
2023-05-24T10:59:58.428Z,5.13
2023-05-24T11:02:36.587Z,5.00
2023-05-24T11:05:07.424Z,5.60
2023-05-24T11:07:42.955Z,5.47
2023-05-24T11:10:15.186Z,5.22
2023-05-24T11:12:44.994Z,5.57
2023-05-24T11:15:13.366Z,5.40
2023-05-24T11:18:16.166Z,4.82
2023-05-24T11:20:45.875Z,5.15
2023-05-24T11:23:16.224Z,4.88
2023-05-24T11:25:44.572Z,5.30
2023-05-24T11:28:13.730Z,4.97
2023-05-24T11:30:42.186Z,5.20
2023-05-24T11:33:20.029Z,4.82
2023-05-24T11:35:49.003Z,4.68
2023-05-24T11:38:17.840Z,5.75
2023-05-24T11:40:47.343Z,5.63
2023-05-24T11:43:16.907Z,5.50
2023-05-24T11:45:46.124Z,6.03
2023-05-24T11:48:14.317Z,5.28
2023-05-24T11:50:49.804Z,5.18
2023-05-24T11:53:20.912Z,5.93
2023-05-24T11:55:49.076Z,6.88
2023-05-24T11:58:23.721Z,6.30
2023-05-24T12:00:52.708Z,5.97
2023-05-24T12:03:21.882Z,6.47
2023-05-24T12:05:52.773Z,5.85
2023-05-24T12:08:21.319Z,5.50
2023-05-24T12:10:51.691Z,5.93
2023-05-24T12:13:23.456Z,5.55
2023-05-24T12:15:55.003Z,5.30
2023-05-24T12:18:26.035Z,5.68
2023-05-24T12:20:56.045Z,6.13
2023-05-24T12:23:27.872Z,5.90
2023-05-24T12:25:59.925Z,5.15
2023-05-24T12:28:28.609Z,5.05
2023-05-24T12:30:57.140Z,6.22
2023-05-24T12:33:25.988Z,5.85
2023-05-24T12:35:56.336Z,5.82
2023-05-24T12:38:26.048Z,5.35
2023-05-24T12:41:11.369Z,5.63
2023-05-24T12:43:41.595Z,5.75
2023-05-24T12:46:09.611Z,5.53
2023-05-24T12:48:37.640Z,5.15
2023-05-24T12:51:08.463Z,5.35
2023-05-24T12:53:36.664Z,5.30
2023-05-24T12:56:04.791Z,4.82
2023-05-24T12:58:32.804Z,4.78
2023-05-24T13:01:00.788Z,5.10
2023-05-24T13:03:28.791Z,5.80
2023-05-24T13:05:56.767Z,5.07
2023-05-24T13:08:28.632Z,4.63
2023-05-24T13:10:56.946Z,4.80
2023-05-24T13:13:25.363Z,4.55
2023-05-24T13:15:53.544Z,4.95
2023-05-24T13:18:21.669Z,4.60
2023-05-24T13:20:50.981Z,4.55
2023-05-24T13:23:19.310Z,4.20
2023-05-24T13:25:49.805Z,4.50
2023-05-24T13:28:17.839Z,4.60
2023-05-24T13:30:46.110Z,5.13
2023-05-24T13:33:14.507Z,5.15
2023-05-24T13:35:42.937Z,5.22
2023-05-24T13:38:11.174Z,4.53
2023-05-24T13:40:41.524Z,4.65
2023-05-24T13:43:11.283Z,4.18
2023-05-24T13:45:39.393Z,5.03
2023-05-24T13:48:07.481Z,4.72
2023-05-24T13:50:36.473Z,5.00
2023-05-24T13:53:05.257Z,4.75
2023-05-24T13:55:35.478Z,4.78
2023-05-24T13:58:04.952Z,5.07
2023-05-24T14:00:35.986Z,4.57
2023-05-24T14:03:05.987Z,4.35
2023-05-24T14:05:34.145Z,4.35
2023-05-24T14:08:06.364Z,4.20
2023-05-24T14:10:36.736Z,4.57
2023-05-24T14:15:40.880Z,4.80
2023-05-24T14:18:09.193Z,4.50
2023-05-24T14:20:38.258Z,4.72
2023-05-24T14:23:07.735Z,4.50
2023-05-24T14:25:35.795Z,4.82
2023-05-24T14:28:04.415Z,4.40
2023-05-24T14:30:32.880Z,4.55
2023-05-24T14:33:02.477Z,5.22
2023-05-24T14:35:30.663Z,4.93
2023-05-24T14:37:58.648Z,4.47
2023-05-24T14:40:26.699Z,4.47
2023-05-24T14:42:55.370Z,5.03
2023-05-24T14:45:23.345Z,5.15
2023-05-24T14:47:51.358Z,5.25
2023-05-24T14:50:21.498Z,4.30
2023-05-24T14:52:49.600Z,4.65
2023-05-24T14:55:17.702Z,4.95
2023-05-24T14:57:45.817Z,5.07
2023-05-24T15:00:15.232Z,4.65
2023-05-24T15:02:43.315Z,4.35
2023-05-24T15:05:11.475Z,4.15
2023-05-24T15:07:40.826Z,4.15
2023-05-24T15:10:09.560Z,3.65
2023-05-24T15:12:37.756Z,3.38
2023-05-24T15:15:06.920Z,4.40
2023-05-24T15:17:35.065Z,3.85
2023-05-24T15:20:03.191Z,3.65
2023-05-24T15:22:31.167Z,3.70
2023-05-24T15:25:00.541Z,3.88
2023-05-24T15:27:28.738Z,4.10
2023-05-24T15:29:59.038Z,4.10
2023-05-24T15:32:27.092Z,4.18
2023-05-24T15:34:55.161Z,3.85
2023-05-24T15:37:24.699Z,3.72
2023-05-24T15:39:53.759Z,3.38
2023-05-24T15:42:24.715Z,4.25
2023-05-24T15:44:53.102Z,4.20
2023-05-24T15:47:22.583Z,4.15
2023-05-24T15:49:50.734Z,4.07
2023-05-24T15:52:18.978Z,3.65
2023-05-24T15:54:47.208Z,3.95
2023-05-24T15:57:15.641Z,3.50
2023-05-24T15:59:44.926Z,3.65
2023-05-24T16:02:13.056Z,3.75
2023-05-24T16:04:41.153Z,4.25
2023-05-24T16:07:09.158Z,4.13
2023-05-24T16:09:37.323Z,3.13
2023-05-24T16:12:07.270Z,3.40
2023-05-24T16:14:35.345Z,3.05
2023-05-24T16:17:08.204Z,3.70
2023-05-24T16:19:36.434Z,3.33
2023-05-24T16:22:04.528Z,3.00
2023-05-24T16:24:32.559Z,3.10
2023-05-24T16:27:01.657Z,3.30
2023-05-24T16:29:30.250Z,3.45
2023-05-24T16:31:58.498Z,3.17
2023-05-24T16:34:28.043Z,3.28
2023-05-24T16:36:57.400Z,2.83
2023-05-24T16:39:26.519Z,3.20
2023-05-24T16:41:54.563Z,2.90
2023-05-24T16:44:22.528Z,3.17
2023-05-24T16:46:50.829Z,2.92
2023-05-24T16:49:18.932Z,2.70
2023-05-24T16:51:48.306Z,2.72
2023-05-24T16:54:16.641Z,3.30
2023-05-24T16:56:46.099Z,2.75
2023-05-24T16:59:14.098Z,3.33
2023-05-24T17:01:42.163Z,8.98
2023-05-24T17:04:10.254Z,13.38
2023-05-24T17:06:38.357Z,4.57
2023-05-24T17:09:07.774Z,4.55
2023-05-24T17:11:35.788Z,3.97
2023-05-24T17:14:04.238Z,5.65
2023-05-24T17:16:32.505Z,3.58
2023-05-24T17:19:00.570Z,2.85
2023-05-24T17:21:29.772Z,3.08
2023-05-24T17:23:57.928Z,2.45
2023-05-24T17:26:27.858Z,3.45
2023-05-24T17:28:56.344Z,3.00
2023-05-24T17:31:24.351Z,2.30
2023-05-24T17:33:52.431Z,2.67
2023-05-24T17:36:20.677Z,2.20
2023-05-24T17:38:48.701Z,2.97
2023-05-24T17:41:17.021Z,2.30
2023-05-24T17:43:46.556Z,1.83
2023-05-24T17:46:14.719Z,2.63
2023-05-24T17:48:43.522Z,2.58
2023-05-24T17:51:12.860Z,2.63
2023-05-24T17:53:43.517Z,2.25
2023-05-24T17:56:11.632Z,2.17
2023-05-24T17:58:40.029Z,2.25
2023-05-24T18:01:11.620Z,2.65
2023-05-24T18:03:41.374Z,2.42
2023-05-24T18:06:10.303Z,2.55
2023-05-24T18:08:43.231Z,2.47
2023-05-24T18:11:13.119Z,2.88
2023-05-24T18:13:42.549Z,2.65
2023-05-24T18:16:13.409Z,2.90
2023-05-24T18:18:43.706Z,2.67
2023-05-24T18:21:13.101Z,2.75
2023-05-24T18:23:41.202Z,2.22
2023-05-24T18:26:10.736Z,3.20
2023-05-24T18:28:41.782Z,2.60
2023-05-24T18:31:11.930Z,2.65
2023-05-24T18:33:40.001Z,2.80
2023-05-24T18:36:08.509Z,3.08
2023-05-24T18:38:37.185Z,3.20
2023-05-24T18:41:09.563Z,2.90
2023-05-24T18:43:39.171Z,2.90
2023-05-24T18:46:07.308Z,2.22
2023-05-24T18:48:36.831Z,2.75
2023-05-24T18:51:04.952Z,2.90
2023-05-24T18:53:33.030Z,2.90
2023-05-24T18:56:01.146Z,2.80
2023-05-24T18:58:29.278Z,2.80
2023-05-24T19:00:57.324Z,2.75
2023-05-24T19:03:26.057Z,2.83
2023-05-24T19:05:55.632Z,2.50
2023-05-24T19:08:24.722Z,2.90
2023-05-24T19:10:52.856Z,2.95
2023-05-24T19:13:20.899Z,2.72
2023-05-24T19:15:49.021Z,2.70
2023-05-24T19:18:17.156Z,2.92
2023-05-24T19:20:45.343Z,2.75
2023-05-24T19:23:15.066Z,3.00
2023-05-24T19:25:44.139Z,2.83
2023-05-24T19:28:12.616Z,2.38
2023-05-24T19:30:40.755Z,2.47
2023-05-24T19:33:08.867Z,2.85
2023-05-24T19:35:37.547Z,2.90
2023-05-24T19:38:05.670Z,3.00
2023-05-24T19:40:35.124Z,2.78
2023-05-24T19:43:03.290Z,2.75
2023-05-24T19:45:31.337Z,2.78
2023-05-24T19:47:59.543Z,2.80
2023-05-24T19:50:30.534Z,2.97
2023-05-24T19:52:59.328Z,2.45
2023-05-24T19:55:27.567Z,3.20
2023-05-24T19:57:57.150Z,2.53
2023-05-24T20:00:25.444Z,2.97
2023-05-24T20:02:53.770Z,2.80
2023-05-24T20:05:22.413Z,3.15
2023-05-24T20:07:50.920Z,3.05
2023-05-24T20:10:19.202Z,3.35
2023-05-24T20:12:47.291Z,2.67
2023-05-24T20:15:18.376Z,3.65
2023-05-24T20:17:46.667Z,3.85
2023-05-24T20:20:14.986Z,4.18
2023-05-24T20:22:43.158Z,2.88
2023-05-24T20:25:11.377Z,3.13
2023-05-24T20:27:41.936Z,3.15
2023-05-24T20:30:10.859Z,3.00
2023-05-24T20:32:40.276Z,2.70
2023-05-24T20:35:09.647Z,2.78
2023-05-24T20:37:37.738Z,2.65
2023-05-24T20:40:07.439Z,2.38
2023-05-24T20:42:35.685Z,2.50
2023-05-24T20:45:04.102Z,3.10
2023-05-24T20:47:32.285Z,2.47
2023-05-24T20:50:01.846Z,2.20
2023-05-24T20:52:29.874Z,2.22
2023-05-24T20:54:57.859Z,2.75
2023-05-24T20:57:25.911Z,2.38
2023-05-24T20:59:54.088Z,2.45
2023-05-24T21:02:22.302Z,2.10
2023-05-24T21:04:50.590Z,2.72
2023-05-24T21:07:20.087Z,2.25
2023-05-24T21:09:48.227Z,2.38
2023-05-24T21:12:16.464Z,2.30
2023-05-24T21:14:45.034Z,2.58
2023-05-24T21:17:13.667Z,3.30
2023-05-24T21:19:41.746Z,2.85
2023-05-24T21:22:09.851Z,2.45
2023-05-24T21:24:39.186Z,2.25
2023-05-24T21:27:07.891Z,2.47
2023-05-24T21:29:37.877Z,2.05
2023-05-24T21:32:06.339Z,2.40
2023-05-24T21:34:35.710Z,2.55
2023-05-24T21:37:05.040Z,2.60
2023-05-24T21:39:33.801Z,2.88
2023-05-24T21:42:03.383Z,2.20
2023-05-24T21:44:31.513Z,2.70
2023-05-24T21:46:59.621Z,2.30
2023-05-24T21:49:28.358Z,2.13
2023-05-24T21:51:56.351Z,2.15
2023-05-24T21:54:24.382Z,2.53
2023-05-24T21:56:52.439Z,2.35
2023-05-24T21:59:22.332Z,2.20
2023-05-24T22:01:51.253Z,2.80
2023-05-24T22:04:19.394Z,2.72
2023-05-24T22:06:47.504Z,2.25
2023-05-24T22:09:15.790Z,2.53
2023-05-24T22:11:43.913Z,2.60
2023-05-24T22:14:11.955Z,3.22
2023-05-24T22:16:41.499Z,2.22
2023-05-24T22:19:14.382Z,2.40
2023-05-24T22:21:42.981Z,2.33
2023-05-24T22:24:11.175Z,2.35
2023-05-24T22:26:41.599Z,2.10
2023-05-24T22:29:09.730Z,2.63
2023-05-24T22:31:37.812Z,2.42
2023-05-24T22:34:07.517Z,2.83
2023-05-24T22:36:37.939Z,2.50
2023-05-24T22:39:07.201Z,2.10
2023-05-24T22:41:35.232Z,2.47
2023-05-24T22:44:03.278Z,2.30
2023-05-24T22:46:31.290Z,2.58
2023-05-24T22:49:03.105Z,2.60
2023-05-24T22:51:32.668Z,2.30
2023-05-24T22:54:00.640Z,2.42
2023-05-24T22:56:28.711Z,2.20
2023-05-24T22:58:56.735Z,2.45
2023-05-24T23:01:24.920Z,2.65
2023-05-24T23:03:52.989Z,2.20
2023-05-24T23:06:21.148Z,2.50
2023-05-24T23:08:50.584Z,2.33
2023-05-24T23:11:18.567Z,2.50
2023-05-24T23:13:46.553Z,2.60
2023-05-24T23:16:17.895Z,2.30
2023-05-24T23:18:46.343Z,2.40
2023-05-24T23:21:16.657Z,3.17
2023-05-24T23:23:46.167Z,2.45
2023-05-24T23:26:15.553Z,2.60
2023-05-24T23:28:46.454Z,3.20
2023-05-24T23:31:14.655Z,2.78
2023-05-24T23:33:42.689Z,2.55
2023-05-24T23:36:10.976Z,2.35
2023-05-24T23:38:38.980Z,2.80
2023-05-24T23:41:07.010Z,2.80
2023-05-24T23:43:36.326Z,2.60
2023-05-24T23:46:04.321Z,2.88
2023-05-24T23:48:32.314Z,2.70
2023-05-24T23:51:00.460Z,2.58
2023-05-24T23:53:28.473Z,2.53
2023-05-24T23:55:56.543Z,2.30
2023-05-24T23:58:24.929Z,2.65
